< < Back
Terminal Aerodrome Forecast


Current Version              Previous Versions:   1  2  3  4  5  6  7  8  9  

Terminal Aerodrome Forecast

597
FTUS42 KMLB 262336
TAFDAB
TAF
KDAB 262336Z 2700/2724 02012KT P6SM SCT027 SCT100 BKN250
     FM270200 34006KT P6SM BKN025 OVC060
     FM271400 02013KT P6SM BKN025 BKN040=

Latest METAR

376
SAUS80 KWBC 270600
MTRDAB
METAR KDAB 270553Z 02012G17KT 10SM FEW017 OVC029 12/08 A3010 RMK AO2
SLP193 T01220078 10139 20122 51009


USA.gov is the U.S. government's official web portal to all federal, state and local government web resources and services.